createdAt,value
2022-08-25T00:00:16.810Z,5.82
2022-08-25T00:02:55.977Z,6.40
2022-08-25T00:05:32.556Z,6.07
2022-08-25T00:08:06.103Z,7.07
2022-08-25T00:10:40.144Z,6.40
2022-08-25T00:13:08.843Z,6.90
2022-08-25T00:15:36.850Z,6.47
2022-08-25T00:18:05.708Z,6.95
2022-08-25T00:20:49.318Z,7.13
2022-08-25T00:23:16.766Z,7.65
2022-08-25T00:25:44.114Z,7.25
2022-08-25T00:28:11.766Z,8.30
2022-08-25T00:30:39.810Z,7.68
2022-08-25T00:33:07.289Z,7.82
2022-08-25T00:35:35.581Z,7.60
2022-08-25T00:38:03.047Z,7.15
2022-08-25T00:40:30.495Z,7.90
2022-08-25T00:42:57.963Z,7.50
2022-08-25T00:45:25.416Z,6.75
2022-08-25T00:47:53.171Z,7.63
2022-08-25T00:50:22.636Z,8.38
2022-08-25T00:53:02.137Z,7.53
2022-08-25T00:55:40.745Z,8.27
2022-08-25T00:58:21.890Z,8.65
2022-08-25T01:00:57.563Z,8.60
2022-08-25T01:03:32.858Z,8.77
2022-08-25T01:06:04.735Z,8.20
2022-08-25T01:08:34.043Z,9.07
2022-08-25T01:11:08.923Z,8.63
2022-08-25T01:13:49.438Z,7.70
2022-08-25T01:16:18.245Z,8.30
2022-08-25T01:18:56.456Z,8.45
2022-08-25T01:21:27.742Z,8.25
2022-08-25T01:23:59.775Z,7.50
2022-08-25T01:26:33.867Z,7.80
2022-08-25T01:29:25.518Z,8.38
2022-08-25T01:32:02.980Z,8.48
2022-08-25T01:34:35.945Z,7.38
2022-08-25T01:37:04.900Z,6.45
2022-08-25T01:39:36.634Z,6.97
2022-08-25T01:42:06.320Z,8.23
2022-08-25T01:44:38.452Z,8.73
2022-08-25T01:47:08.380Z,7.30
2022-08-25T01:49:36.288Z,7.70
2022-08-25T01:52:34.511Z,8.80
2022-08-25T01:55:01.791Z,7.63
2022-08-25T01:57:31.722Z,6.68
2022-08-25T02:00:01.750Z,7.85
2022-08-25T02:02:42.017Z,7.68
2022-08-25T02:05:14.102Z,7.78
2022-08-25T02:07:43.640Z,8.80
2022-08-25T02:10:13.686Z,7.55
2022-08-25T02:12:41.216Z,8.48
2022-08-25T02:15:09.804Z,7.25
2022-08-25T02:17:37.447Z,7.78
2022-08-25T02:20:09.605Z,7.35
2022-08-25T02:22:37.344Z,7.53
2022-08-25T02:25:06.408Z,8.55
2022-08-25T02:27:38.934Z,8.40
2022-08-25T02:30:07.476Z,7.32
2022-08-25T02:32:34.822Z,7.50
2022-08-25T02:35:02.301Z,7.28
2022-08-25T02:37:29.586Z,8.02
2022-08-25T02:39:56.954Z,7.95
2022-08-25T02:42:24.771Z,7.07
2022-08-25T02:44:52.556Z,7.53
2022-08-25T02:47:25.702Z,9.00
2022-08-25T02:49:55.617Z,8.02
2022-08-25T02:52:22.959Z,8.85
2022-08-25T02:54:50.371Z,9.48
2022-08-25T02:57:18.105Z,8.60
2022-08-25T02:59:48.348Z,7.88
2022-08-25T03:02:16.766Z,8.35
2022-08-25T03:04:44.570Z,8.50
2022-08-25T03:07:12.646Z,8.52
2022-08-25T03:09:40.193Z,7.07
2022-08-25T03:12:09.011Z,8.35
2022-08-25T03:14:36.571Z,8.27
2022-08-25T03:17:04.296Z,8.15
2022-08-25T03:19:36.287Z,9.10
2022-08-25T03:22:03.819Z,8.70
2022-08-25T03:24:31.234Z,9.00
2022-08-25T03:26:58.595Z,8.23
2022-08-25T03:29:33.497Z,9.20
2022-08-25T03:32:01.448Z,9.13
2022-08-25T03:34:30.941Z,9.23
2022-08-25T03:36:58.997Z,9.10
2022-08-25T03:39:27.801Z,9.38
2022-08-25T03:41:55.237Z,8.85
2022-08-25T03:44:23.023Z,8.98
2022-08-25T03:46:52.437Z,9.05
2022-08-25T03:49:24.274Z,9.18
2022-08-25T03:51:54.854Z,9.00
2022-08-25T03:54:26.170Z,8.45
2022-08-25T03:56:54.337Z,7.55
2022-08-25T03:59:21.843Z,8.48
2022-08-25T04:01:54.715Z,8.35
2022-08-25T04:04:23.040Z,8.32
2022-08-25T04:06:50.287Z,8.48
2022-08-25T04:09:17.558Z,7.72
2022-08-25T04:11:44.858Z,7.75
2022-08-25T04:14:15.799Z,7.32
2022-08-25T04:16:45.563Z,8.43
2022-08-25T04:19:13.788Z,7.45
2022-08-25T04:21:42.117Z,7.47
2022-08-25T04:24:12.988Z,7.00
2022-08-25T04:26:49.670Z,7.28
2022-08-25T04:31:54.787Z,8.02
2022-08-25T04:34:30.617Z,7.75
2022-08-25T04:37:07.886Z,7.68
2022-08-25T04:39:36.064Z,8.05
2022-08-25T04:42:04.259Z,6.90
2022-08-25T04:44:32.407Z,7.38
2022-08-25T04:47:02.021Z,6.45
2022-08-25T04:49:30.195Z,6.72
2022-08-25T04:51:57.869Z,7.15
2022-08-25T04:54:25.250Z,7.10
2022-08-25T04:56:54.571Z,8.10
2022-08-25T04:59:29.993Z,6.97
2022-08-25T05:02:02.997Z,6.47
2022-08-25T05:04:33.577Z,6.82
2022-08-25T05:07:02.361Z,7.03
2022-08-25T05:09:32.549Z,7.53
2022-08-25T05:12:02.889Z,6.82
2022-08-25T05:14:32.006Z,6.30
2022-08-25T05:16:59.755Z,6.47
2022-08-25T05:19:27.569Z,7.65
2022-08-25T05:21:54.928Z,6.13
2022-08-25T05:24:26.620Z,8.32
2022-08-25T05:26:54.243Z,6.47
2022-08-25T05:29:21.636Z,6.32
2022-08-25T05:31:50.754Z,7.03
2022-08-25T05:34:19.697Z,6.82
2022-08-25T05:36:49.338Z,7.15
2022-08-25T05:39:16.681Z,6.65
2022-08-25T05:41:44.561Z,6.68
2022-08-25T05:44:12.783Z,7.28
2022-08-25T05:46:40.209Z,6.22
2022-08-25T05:49:07.514Z,8.00
2022-08-25T05:51:34.802Z,7.20
2022-08-25T05:54:02.117Z,7.43
2022-08-25T05:56:29.590Z,7.60
2022-08-25T05:58:56.849Z,6.97
2022-08-25T06:01:47.774Z,6.47
2022-08-25T06:04:20.294Z,6.75
2022-08-25T06:06:48.846Z,7.55
2022-08-25T06:09:16.141Z,6.88
2022-08-25T06:11:43.557Z,5.78
2022-08-25T06:14:11.434Z,6.78
2022-08-25T06:16:40.400Z,7.38
2022-08-25T06:19:11.060Z,5.72
2022-08-25T06:21:39.318Z,5.47
2022-08-25T06:24:13.322Z,6.20
2022-08-25T06:26:43.992Z,6.63
2022-08-25T06:29:13.996Z,5.93
2022-08-25T06:31:42.559Z,7.05
2022-08-25T06:34:11.648Z,5.32
2022-08-25T06:36:40.049Z,6.53
2022-08-25T06:39:10.506Z,5.18
2022-08-25T06:41:39.153Z,5.72
2022-08-25T06:44:06.504Z,6.30
2022-08-25T06:46:35.620Z,6.10
2022-08-25T06:49:06.730Z,5.90
2022-08-25T06:51:38.271Z,6.03
2022-08-25T06:54:08.219Z,6.43
2022-08-25T06:56:36.898Z,6.25
2022-08-25T06:59:06.266Z,6.35
2022-08-25T07:01:35.257Z,6.22
2022-08-25T07:04:10.428Z,5.78
2022-08-25T07:06:41.507Z,5.20
2022-08-25T07:09:12.105Z,6.18
2022-08-25T07:11:44.106Z,5.88
2022-08-25T07:14:16.405Z,6.53
2022-08-25T07:16:48.727Z,6.18
2022-08-25T07:19:20.749Z,6.10
2022-08-25T07:21:53.054Z,6.53
2022-08-25T07:24:22.707Z,6.13
2022-08-25T07:26:51.290Z,6.95
2022-08-25T07:32:14.481Z,5.72
2022-08-25T07:35:00.145Z,6.32
2022-08-25T07:40:26.797Z,5.47
2022-08-25T07:43:00.891Z,6.22
2022-08-25T07:45:33.622Z,5.40
2022-08-25T07:48:11.446Z,6.38
2022-08-25T07:50:45.348Z,5.32
2022-08-25T07:53:16.216Z,4.97
2022-08-25T07:55:48.101Z,5.40
2022-08-25T07:58:15.901Z,6.15
2022-08-25T08:00:43.332Z,5.32
2022-08-25T08:03:19.731Z,6.88
2022-08-25T08:05:58.284Z,5.60
2022-08-25T08:08:25.550Z,6.13
2022-08-25T08:11:04.132Z,5.35
2022-08-25T08:13:39.209Z,4.53
2022-08-25T08:16:14.311Z,5.50
2022-08-25T08:18:45.055Z,6.05
2022-08-25T08:21:24.397Z,5.60
2022-08-25T08:23:58.700Z,5.68
2022-08-25T08:26:48.128Z,6.00
2022-08-25T08:29:16.416Z,5.85
2022-08-25T08:31:48.740Z,6.45
2022-08-25T08:34:17.097Z,5.47
2022-08-25T08:36:45.250Z,5.30
2022-08-25T08:39:12.880Z,5.25
2022-08-25T08:42:23.107Z,5.97
2022-08-25T08:45:17.342Z,5.57
2022-08-25T08:48:19.872Z,5.35
2022-08-25T08:51:24.705Z,6.03
2022-08-25T08:54:29.682Z,5.53
2022-08-25T08:57:29.119Z,5.93
2022-08-25T09:00:06.444Z,6.53
2022-08-25T09:03:08.297Z,7.05
2022-08-25T09:05:55.006Z,5.95
2022-08-25T09:08:22.399Z,18.13
2022-08-25T09:11:23.022Z,5.35
2022-08-25T09:14:33.157Z,5.95
2022-08-25T09:17:07.066Z,5.30
2022-08-25T09:19:58.781Z,4.40
2022-08-25T09:23:09.439Z,6.07
2022-08-25T09:26:03.325Z,5.85
2022-08-25T09:29:16.333Z,5.90
2022-08-25T09:31:46.420Z,7.65
2022-08-25T09:34:22.603Z,7.68
2022-08-25T09:36:52.938Z,6.20
2022-08-25T09:39:21.438Z,5.60
2022-08-25T09:42:00.451Z,7.15
2022-08-25T09:44:44.072Z,6.07
2022-08-25T09:47:30.274Z,6.10
2022-08-25T09:50:05.532Z,6.45
2022-08-25T09:52:41.273Z,5.55
2022-08-25T09:55:08.885Z,6.70
2022-08-25T09:57:43.665Z,6.60
2022-08-25T10:00:26.725Z,5.43
2022-08-25T10:03:24.802Z,4.95
2022-08-25T10:06:15.865Z,6.20
2022-08-25T10:08:44.078Z,5.28
2022-08-25T10:11:30.480Z,4.93
2022-08-25T10:14:20.202Z,5.93
2022-08-25T10:16:49.909Z,5.88
2022-08-25T10:19:30.503Z,5.45
2022-08-25T10:22:07.902Z,5.95
2022-08-25T10:24:38.051Z,6.35
2022-08-25T10:27:36.922Z,5.20
2022-08-25T10:30:23.659Z,5.43
2022-08-25T10:33:22.651Z,6.20
2022-08-25T10:36:14.870Z,4.68
2022-08-25T10:39:02.454Z,4.35
2022-08-25T10:42:10.802Z,5.60
2022-08-25T10:45:31.357Z,4.03
2022-08-25T10:48:47.842Z,3.92
2022-08-25T10:52:07.702Z,4.28
2022-08-25T10:55:07.117Z,3.83
2022-08-25T10:58:30.721Z,3.88
2022-08-25T11:01:32.973Z,4.05
2022-08-25T11:04:30.028Z,3.75
2022-08-25T11:07:23.069Z,4.05
2022-08-25T11:09:59.884Z,4.43
2022-08-25T11:12:41.070Z,4.53
2022-08-25T11:15:28.822Z,3.83
2022-08-25T11:18:15.169Z,4.25
2022-08-25T11:21:16.062Z,3.92
2022-08-25T11:24:29.614Z,4.22
2022-08-25T11:26:58.279Z,4.40
2022-08-25T11:29:38.053Z,3.63
2022-08-25T11:32:07.475Z,5.05
2022-08-25T11:34:42.989Z,4.97
2022-08-25T11:37:30.645Z,4.90
2022-08-25T11:40:20.269Z,4.60
2022-08-25T11:43:53.024Z,4.15
2022-08-25T11:47:05.720Z,3.83
2022-08-25T11:49:46.158Z,4.70
2022-08-25T11:52:34.676Z,4.60
2022-08-25T11:55:45.589Z,3.75
2022-08-25T11:58:53.839Z,4.10
2022-08-25T12:01:40.232Z,4.97
2022-08-25T12:04:34.160Z,4.70
2022-08-25T12:07:11.177Z,4.03
2022-08-25T12:09:55.829Z,3.22
2022-08-25T12:12:59.824Z,3.65
2022-08-25T12:15:58.418Z,3.90
2022-08-25T12:18:32.135Z,3.78
2022-08-25T12:21:00.077Z,3.15
2022-08-25T12:23:45.053Z,3.65
2022-08-25T12:26:52.292Z,3.83
2022-08-25T12:30:05.229Z,3.85
2022-08-25T12:33:28.894Z,3.72
2022-08-25T12:36:11.343Z,3.30
2022-08-25T12:38:52.316Z,3.15
2022-08-25T12:42:05.292Z,3.15
2022-08-25T12:45:07.425Z,3.95
2022-08-25T12:47:35.801Z,3.40
2022-08-25T12:50:44.595Z,3.28
2022-08-25T12:53:36.780Z,3.65
2022-08-25T12:56:39.035Z,3.33
2022-08-25T12:59:32.314Z,3.55
2022-08-25T13:02:52.679Z,3.72
2022-08-25T13:05:25.911Z,3.92
2022-08-25T13:08:44.773Z,4.22
2022-08-25T13:11:45.196Z,3.72
2022-08-25T13:14:21.064Z,4.03
2022-08-25T13:17:01.402Z,3.47
2022-08-25T13:19:34.796Z,3.67
2022-08-25T13:22:25.697Z,3.67
2022-08-25T13:24:53.139Z,3.20
2022-08-25T13:27:28.063Z,4.00
2022-08-25T13:29:59.937Z,3.72
2022-08-25T13:32:39.539Z,3.63
2022-08-25T13:35:32.128Z,3.90
2022-08-25T13:38:19.503Z,3.35
2022-08-25T13:40:47.183Z,4.03
2022-08-25T13:43:15.398Z,4.10
2022-08-25T13:45:48.171Z,3.75
2022-08-25T13:48:49.565Z,3.83
2022-08-25T13:51:25.589Z,3.40
2022-08-25T13:54:23.724Z,3.78
2022-08-25T13:56:52.584Z,3.72
2022-08-25T13:59:40.186Z,4.03
2022-08-25T14:02:15.232Z,3.33
2022-08-25T14:04:51.294Z,3.58
2022-08-25T14:07:22.502Z,3.95
2022-08-25T14:10:00.857Z,3.75
2022-08-25T14:12:44.882Z,3.53
2022-08-25T14:15:18.548Z,4.38
2022-08-25T14:18:04.507Z,3.90
2022-08-25T14:20:35.782Z,3.65
2022-08-25T14:23:12.911Z,3.60
2022-08-25T14:25:49.574Z,4.40
2022-08-25T14:28:24.749Z,4.35
2022-08-25T14:31:14.329Z,3.85
2022-08-25T14:34:20.943Z,3.70
2022-08-25T14:36:49.877Z,3.42
2022-08-25T14:39:19.194Z,3.20
2022-08-25T14:41:51.144Z,4.03
2022-08-25T14:44:21.421Z,3.03
2022-08-25T14:46:56.694Z,3.35
2022-08-25T14:49:34.781Z,3.53
2022-08-25T14:52:27.217Z,3.35
2022-08-25T14:54:54.603Z,3.20
2022-08-25T14:57:21.949Z,3.50
2022-08-25T14:59:52.441Z,3.45
2022-08-25T15:02:29.707Z,3.67
2022-08-25T15:05:06.419Z,3.22
2022-08-25T15:07:54.186Z,3.65
2022-08-25T15:10:21.940Z,3.47
2022-08-25T15:12:54.017Z,3.10
2022-08-25T15:15:22.281Z,3.92
2022-08-25T15:17:50.614Z,3.47
2022-08-25T15:20:18.141Z,3.50
2022-08-25T15:22:48.161Z,3.60
2022-08-25T15:25:16.759Z,3.38
2022-08-25T15:27:44.970Z,3.42
2022-08-25T15:30:14.975Z,3.22
2022-08-25T15:32:43.052Z,3.35
2022-08-25T15:35:11.071Z,3.55
2022-08-25T15:37:42.710Z,3.85
2022-08-25T15:40:10.818Z,3.70
2022-08-25T15:42:38.542Z,3.65
2022-08-25T15:45:11.903Z,3.25
2022-08-25T15:47:39.223Z,3.55
2022-08-25T15:50:15.195Z,3.08
2022-08-25T15:52:48.510Z,3.20
2022-08-25T15:55:17.543Z,3.47
2022-08-25T15:57:45.025Z,4.25
2022-08-25T16:00:16.647Z,3.60
2022-08-25T16:02:45.477Z,3.35
2022-08-25T16:05:16.241Z,3.95
2022-08-25T16:07:46.113Z,3.80
2022-08-25T16:10:19.353Z,4.40
2022-08-25T16:12:47.535Z,3.90
2022-08-25T16:15:16.049Z,3.70
2022-08-25T16:17:45.947Z,3.70
2022-08-25T16:20:17.214Z,3.15
2022-08-25T16:22:45.606Z,3.80
2022-08-25T16:25:14.786Z,3.15
2022-08-25T16:27:42.133Z,3.20
2022-08-25T16:30:16.828Z,3.67
2022-08-25T16:32:46.732Z,3.58
2022-08-25T16:35:14.723Z,3.83
2022-08-25T16:37:42.743Z,3.70
2022-08-25T16:40:14.684Z,3.40
2022-08-25T16:42:42.390Z,3.75
2022-08-25T16:45:10.532Z,3.30
2022-08-25T16:47:38.361Z,3.22
2022-08-25T16:57:14.578Z,4.25
2022-08-25T16:59:43.935Z,3.65
2022-08-25T17:02:12.087Z,4.25
2022-08-25T17:04:40.823Z,4.40
2022-08-25T17:07:08.285Z,4.20
2022-08-25T17:09:36.346Z,3.45
2022-08-25T17:12:05.010Z,4.82
2022-08-25T17:14:33.185Z,4.00
2022-08-25T17:17:01.146Z,4.10
2022-08-25T17:19:29.030Z,3.58
2022-08-25T17:21:58.508Z,3.95
2022-08-25T17:24:29.249Z,3.80
2022-08-25T17:26:57.828Z,3.60
2022-08-25T17:29:26.081Z,3.13
2022-08-25T17:31:54.041Z,3.65
2022-08-25T17:34:23.143Z,4.00
2022-08-25T17:36:53.320Z,4.13
2022-08-25T17:39:22.346Z,4.10
2022-08-25T17:41:55.631Z,3.92
2022-08-25T17:44:25.843Z,3.92
2022-08-25T17:46:54.266Z,4.45
2022-08-25T17:49:29.876Z,4.40
2022-08-25T17:51:57.386Z,4.15
2022-08-25T17:54:30.213Z,4.20
2022-08-25T17:57:05.242Z,4.53
2022-08-25T17:59:37.180Z,4.15
2022-08-25T18:02:04.897Z,4.18
2022-08-25T18:04:38.965Z,4.20
2022-08-25T18:07:07.480Z,4.78
2022-08-25T18:09:34.997Z,4.30
2022-08-25T18:12:05.717Z,4.68
2022-08-25T18:14:33.467Z,4.50
2022-08-25T18:17:03.680Z,5.05
2022-08-25T18:19:32.596Z,5.53
2022-08-25T18:22:04.364Z,4.88
2022-08-25T18:24:32.386Z,4.72
2022-08-25T18:27:00.376Z,4.95
2022-08-25T18:29:28.624Z,4.90
2022-08-25T18:32:00.208Z,5.10
2022-08-25T18:34:28.175Z,4.53
2022-08-25T18:37:18.201Z,4.63
2022-08-25T18:40:05.153Z,4.30
2022-08-25T18:42:35.739Z,4.80
2022-08-25T18:45:08.052Z,4.88
2022-08-25T18:47:39.912Z,4.95
2022-08-25T18:50:08.500Z,5.20
2022-08-25T18:52:36.769Z,7.28
2022-08-25T18:55:05.418Z,6.75
2022-08-25T18:57:33.097Z,7.88
2022-08-25T19:00:02.503Z,7.93
2022-08-25T19:02:31.087Z,8.95
2022-08-25T19:05:02.912Z,8.75
2022-08-25T19:10:02.283Z,9.55
2022-08-25T19:12:29.997Z,9.88
2022-08-25T19:14:57.965Z,10.55
2022-08-25T19:17:25.369Z,12.80
2022-08-25T19:19:55.315Z,11.20
2022-08-25T19:22:40.719Z,12.48
2022-08-25T19:25:10.381Z,13.73
2022-08-25T19:27:38.988Z,14.48
2022-08-25T19:30:10.455Z,17.25
2022-08-25T19:32:42.427Z,18.42
2022-08-25T19:35:42.854Z,16.67
2022-08-25T19:38:33.531Z,16.85
2022-08-25T19:41:02.558Z,24.05
2022-08-25T19:43:36.416Z,24.40
2022-08-25T19:46:07.364Z,28.35
2022-08-25T19:48:34.715Z,30.08
2022-08-25T19:51:05.172Z,33.38
2022-08-25T19:53:33.803Z,35.13
2022-08-25T19:56:01.749Z,33.28
2022-08-25T19:58:29.048Z,41.78
2022-08-25T20:00:56.477Z,39.75
2022-08-25T20:03:23.784Z,41.78
2022-08-25T20:05:51.988Z,45.05
2022-08-25T20:08:19.306Z,46.95
2022-08-25T20:10:57.884Z,48.97
2022-08-25T20:13:25.256Z,49.78
2022-08-25T20:15:52.612Z,48.75
2022-08-25T20:18:25.087Z,49.45
2022-08-25T20:20:52.610Z,52.13
2022-08-25T20:23:38.547Z,51.47
2022-08-25T20:26:08.789Z,56.13
2022-08-25T20:28:36.403Z,55.97
2022-08-25T20:31:04.066Z,59.28
2022-08-25T20:33:31.415Z,57.83
2022-08-25T20:35:59.196Z,61.30
2022-08-25T20:38:29.772Z,58.60
2022-08-25T20:40:58.287Z,52.92
2022-08-25T20:43:27.793Z,61.30
2022-08-25T20:46:04.093Z,59.58
2022-08-25T20:48:33.399Z,54.83
2022-08-25T20:51:10.773Z,60.45
2022-08-25T20:53:42.555Z,59.20
2022-08-25T20:56:14.726Z,63.20
2022-08-25T20:58:45.148Z,60.38
2022-08-25T21:01:37.962Z,50.95
2022-08-25T21:04:17.860Z,59.83
2022-08-25T21:06:47.022Z,61.67
2022-08-25T21:09:21.382Z,60.30
2022-08-25T21:11:53.322Z,55.38
2022-08-25T21:14:22.638Z,60.80
2022-08-25T21:16:51.011Z,55.25
2022-08-25T21:19:26.770Z,56.20
2022-08-25T21:22:00.270Z,57.78
2022-08-25T21:24:29.398Z,58.35
2022-08-25T21:27:03.237Z,57.03
2022-08-25T21:29:32.785Z,55.28
2022-08-25T21:32:01.008Z,55.35
2022-08-25T21:34:29.763Z,54.03
2022-08-25T21:37:00.044Z,45.80
2022-08-25T21:39:32.404Z,49.33
2022-08-25T21:42:00.668Z,55.63
2022-08-25T21:44:29.875Z,53.85
2022-08-25T21:46:57.277Z,50.38
2022-08-25T21:49:25.448Z,54.00
2022-08-25T21:52:03.270Z,50.22
2022-08-25T21:54:32.248Z,48.10
2022-08-25T21:57:06.438Z,46.22
2022-08-25T21:59:41.057Z,47.28
2022-08-25T22:02:12.391Z,45.47
2022-08-25T22:04:42.977Z,44.70
2022-08-25T22:07:11.184Z,45.97
2022-08-25T22:09:40.090Z,46.10
2022-08-25T22:12:09.256Z,46.42
2022-08-25T22:14:38.761Z,49.22
2022-08-25T22:17:10.024Z,46.15
2022-08-25T22:19:41.003Z,44.78
2022-08-25T22:22:08.827Z,46.08
2022-08-25T22:24:36.167Z,44.53
2022-08-25T22:27:03.747Z,42.10
2022-08-25T22:29:43.666Z,41.10
2022-08-25T22:32:13.656Z,41.92
2022-08-25T22:34:41.438Z,43.70
2022-08-25T22:37:11.088Z,45.63
2022-08-25T22:39:40.213Z,45.33
2022-08-25T22:42:08.024Z,44.08
2022-08-25T22:44:40.097Z,43.83
2022-08-25T22:47:08.502Z,41.50
2022-08-25T22:49:38.428Z,39.78
2022-08-25T22:52:06.993Z,39.72
2022-08-25T22:54:37.846Z,38.92
2022-08-25T22:57:06.917Z,38.90
2022-08-25T22:59:34.799Z,36.92
2022-08-25T23:02:02.403Z,37.05
2022-08-25T23:04:29.843Z,33.92
2022-08-25T23:06:57.197Z,32.33
2022-08-25T23:09:24.823Z,35.33
2022-08-25T23:11:52.391Z,36.03
2022-08-25T23:14:21.756Z,34.30
2022-08-25T23:16:50.060Z,31.65
2022-08-25T23:19:18.735Z,31.73
2022-08-25T23:22:05.944Z,31.27
2022-08-25T23:24:54.464Z,31.77
2022-08-25T23:27:22.534Z,31.38
2022-08-25T23:29:50.459Z,29.08
2022-08-25T23:32:18.910Z,26.05
2022-08-25T23:34:47.225Z,26.30
2022-08-25T23:37:16.251Z,28.80
2022-08-25T23:39:49.494Z,28.38
2022-08-25T23:42:19.825Z,26.45
2022-08-25T23:44:49.430Z,25.58
2022-08-25T23:47:18.504Z,21.65
2022-08-25T23:49:48.219Z,21.48
2022-08-25T23:52:17.478Z,18.83
2022-08-25T23:54:46.503Z,19.63
2022-08-25T23:57:13.947Z,16.52
2022-08-25T23:59:42.288Z,15.13
